Time;durP1;ratioP1;P1;durP2;ratioP2;P2;SDS_P1;SDS_P2;PMS_P1;PMS_P2;Temp;Humidity;BMP_temperature;BMP_pressure;BME280_temperature;BME280_humidity;BME280_pressure;Samples;Min_cycle;Max_cycle;Signal;HPM_P1;HPM_P2
2024/01/15 00:01:17;;;;;;;13.13;8.20;;;1.00;99.90;;;;;;5007737;28;20275;-88
2024/01/15 00:03:43;;;;;;;12.10;7.70;;;1.50;99.90;;;;;;4993569;28;20208;-89
2024/01/15 00:06:08;;;;;;;13.50;8.00;;;1.60;99.90;;;;;;4993466;28;20782;-88
2024/01/15 00:08:34;;;;;;;13.43;7.40;;;1.00;99.90;;;;;;5000770;28;20222;-87
2024/01/15 00:10:59;;;;;;;13.70;7.50;;;1.20;99.90;;;;;;4995719;28;20216;-88
2024/01/15 00:13:25;;;;;;;12.60;7.70;;;1.20;99.90;;;;;;4988439;28;20198;-87
2024/01/15 00:15:50;;;;;;;17.03;8.10;;;1.70;99.90;;;;;;5001975;28;20231;-87
2024/01/15 00:18:16;;;;;;;11.73;8.53;;;1.40;99.90;;;;;;5001011;28;20192;-88
2024/01/15 00:20:41;;;;;;;13.97;7.50;;;0.60;99.70;;;;;;5001831;28;20223;-89
2024/01/15 00:23:07;;;;;;;13.60;8.13;;;1.50;99.90;;;;;;4994255;28;21244;-88
2024/01/15 00:25:33;;;;;;;16.23;8.10;;;0.60;99.90;;;;;;4994741;28;20269;-86
2024/01/15 00:27:58;;;;;;;19.63;7.97;;;1.00;99.90;;;;;;4990115;28;20439;-86
2024/01/15 00:30:24;;;;;;;13.03;8.13;;;0.80;99.90;;;;;;4992069;28;20189;-86
2024/01/15 00:32:49;;;;;;;13.97;8.20;;;0.90;99.90;;;;;;4984970;28;20207;-87
2024/01/15 00:35:15;;;;;;;12.20;7.23;;;0.80;99.90;;;;;;4982739;28;20564;-87
2024/01/15 00:37:41;;;;;;;10.83;7.23;;;1.20;99.90;;;;;;4982452;28;20180;-87
2024/01/15 00:40:07;;;;;;;11.68;7.82;;;0.80;99.90;;;;;;4982353;28;20248;-86
2024/01/15 00:42:34;;;;;;;12.35;6.68;;;0.60;99.90;;;;;;4986886;28;20211;-87
2024/01/15 00:44:59;;;;;;;13.18;7.18;;;0.70;99.90;;;;;;4986246;28;20688;-89
2024/01/15 00:47:25;;;;;;;15.83;7.70;;;0.80;99.90;;;;;;4988452;28;20282;-87
2024/01/15 00:49:50;;;;;;;12.40;6.90;;;0.70;99.90;;;;;;4980141;28;20654;-86
2024/01/15 00:52:16;;;;;;;10.40;6.90;;;0.60;99.90;;;;;;4982603;28;20192;-87
2024/01/15 00:54:41;;;;;;;13.50;8.23;;;0.50;99.90;;;;;;4986187;28;20223;-87
2024/01/15 00:57:07;;;;;;;11.10;7.07;;;0.50;99.90;;;;;;4977825;28;20197;-87
2024/01/15 00:59:32;;;;;;;14.53;6.70;;;0.00;99.90;;;;;;4974493;28;20200;-87
2024/01/15 01:01:58;;;;;;;10.30;6.10;;;0.50;99.90;;;;;;4978052;28;20219;-87
2024/01/15 01:04:23;;;;;;;11.80;6.80;;;0.50;99.90;;;;;;4979526;28;20203;-87
2024/01/15 01:06:49;;;;;;;14.03;7.20;;;0.70;99.90;;;;;;4978534;28;20223;-87
2024/01/15 01:09:14;;;;;;;12.50;6.40;;;0.60;99.90;;;;;;4978041;28;20226;-86
2024/01/15 01:11:40;;;;;;;10.40;6.57;;;0.70;99.90;;;;;;4983487;28;20200;-86
2024/01/15 01:14:06;;;;;;;14.60;7.93;;;0.70;99.90;;;;;;4985348;28;20658;-85
2024/01/15 01:16:38;;;;;;;10.50;6.07;;;0.70;99.90;;;;;;4987767;28;20185;-85
2024/01/15 01:19:04;;;;;;;11.98;5.95;;;0.90;99.90;;;;;;4989690;28;20498;-85
2024/01/15 01:21:30;;;;;;;14.75;7.38;;;0.80;99.90;;;;;;4991119;28;20207;-86
2024/01/15 01:23:55;;;;;;;11.03;6.47;;;1.00;99.90;;;;;;4987838;28;20274;-86
2024/01/15 01:26:21;;;;;;;10.37;7.13;;;1.30;99.90;;;;;;4983338;28;20677;-86
2024/01/15 01:28:46;;;;;;;11.80;6.90;;;1.40;99.90;;;;;;4981352;28;20185;-86
2024/01/15 01:31:12;;;;;;;10.07;6.27;;;0.90;99.90;;;;;;4982763;28;20286;-86
2024/01/15 01:33:39;;;;;;;10.50;6.87;;;0.60;99.90;;;;;;4980030;28;20330;-86
2024/01/15 01:36:09;;;;;;;9.75;6.57;;;0.80;99.90;;;;;;4983196;28;20224;-86
2024/01/15 01:38:35;;;;;;;13.48;7.30;;;1.30;99.90;;;;;;4980542;28;20207;-86
2024/01/15 01:41:01;;;;;;;14.10;7.28;;;1.10;99.90;;;;;;4981418;28;20217;-86
2024/01/15 01:43:26;;;;;;;10.97;6.40;;;1.30;99.90;;;;;;4982254;28;20184;-87
2024/01/15 01:45:52;;;;;;;12.07;6.90;;;1.30;99.90;;;;;;4978528;28;20697;-86
2024/01/15 01:48:18;;;;;;;12.48;6.43;;;1.10;99.90;;;;;;4983351;28;20566;-86
2024/01/15 01:50:44;;;;;;;12.10;7.07;;;1.50;99.90;;;;;;4985758;28;20185;-86
2024/01/15 01:53:10;;;;;;;10.27;6.20;;;1.50;99.90;;;;;;4993428;28;20470;-86
2024/01/15 01:55:37;;;;;;;12.43;7.47;;;1.90;99.90;;;;;;5002735;28;20562;-85
2024/01/15 01:58:03;;;;;;;8.90;6.28;;;1.60;99.90;;;;;;5006161;28;20459;-86
2024/01/15 02:00:30;;;;;;;12.88;7.75;;;2.00;99.90;;;;;;4988636;28;20184;-86
2024/01/15 02:02:56;;;;;;;10.02;6.45;;;0.90;99.90;;;;;;4980353;28;20218;-86
2024/01/15 02:05:22;;;;;;;10.10;6.53;;;1.90;99.90;;;;;;4983527;28;20240;-85
2024/01/15 02:07:47;;;;;;;10.65;6.10;;;1.50;99.90;;;;;;4985352;28;20184;-85
2024/01/15 02:10:14;;;;;;;11.47;6.23;;;1.70;99.90;;;;;;4983409;28;20227;-86
2024/01/15 02:12:39;;;;;;;11.38;6.20;;;1.60;99.90;;;;;;4980775;28;20641;-86
2024/01/15 02:15:05;;;;;;;12.57;7.70;;;1.60;99.90;;;;;;4981415;28;20291;-86
2024/01/15 02:17:31;;;;;;;12.33;7.50;;;1.40;99.90;;;;;;4983543;28;20191;-86
2024/01/15 02:19:56;;;;;;;13.50;7.50;;;1.40;99.90;;;;;;4984131;28;20451;-85
2024/01/15 02:22:22;;;;;;;10.97;6.77;;;1.50;99.90;;;;;;4983453;28;20268;-85
2024/01/15 02:24:47;;;;;;;13.93;8.37;;;1.30;99.90;;;;;;4983968;28;20235;-86
2024/01/15 02:27:13;;;;;;;11.40;6.60;;;0.70;99.90;;;;;;4987074;28;20199;-85
2024/01/15 02:29:39;;;;;;;11.37;6.30;;;1.80;99.90;;;;;;4982374;28;20192;-85
2024/01/15 02:32:05;;;;;;;13.23;7.43;;;0.60;99.90;;;;;;4991918;28;20276;-86
2024/01/15 02:34:32;;;;;;;13.52;8.15;;;1.10;99.90;;;;;;4986216;28;20208;-88
2024/01/15 02:36:57;;;;;;;11.80;7.03;;;1.00;99.90;;;;;;4990361;28;20188;-87
2024/01/15 02:39:23;;;;;;;15.40;7.63;;;0.80;99.90;;;;;;4981601;28;20184;-86
2024/01/15 02:41:48;;;;;;;12.67;6.70;;;1.20;99.90;;;;;;4981163;28;20550;-86
2024/01/15 02:44:14;;;;;;;11.50;7.27;;;0.50;99.90;;;;;;4976957;28;20234;-86
2024/01/15 02:46:39;;;;;;;10.93;6.07;;;0.90;99.90;;;;;;4986850;28;20217;-85
2024/01/15 02:49:05;;;;;;;9.37;6.00;;;0.90;99.90;;;;;;4985036;28;20176;-86
2024/01/15 02:51:30;;;;;;;9.40;6.47;;;1.00;99.90;;;;;;4983149;28;20222;-85
2024/01/15 02:53:56;;;;;;;10.97;6.83;;;0.80;99.90;;;;;;4980387;28;20221;-86
2024/01/15 02:56:22;;;;;;;10.60;6.90;;;0.40;99.90;;;;;;4987460;28;20196;-86
2024/01/15 02:58:47;;;;;;;12.20;6.90;;;1.00;99.90;;;;;;4982361;28;20286;-86
2024/01/15 03:01:12;;;;;;;13.20;8.00;;;0.20;99.90;;;;;;4988224;28;20219;-85
2024/01/15 03:03:40;;;;;;;9.57;6.40;;;1.10;99.90;;;;;;4992422;28;20211;-85
2024/01/15 03:06:05;;;;;;;11.15;6.38;;;0.90;99.90;;;;;;4986346;28;20229;-85
2024/01/15 03:08:31;;;;;;;12.90;7.00;;;0.60;99.90;;;;;;4989114;28;20275;-88
2024/01/15 03:10:57;;;;;;;10.67;6.13;;;0.80;99.90;;;;;;4993606;28;20670;-85
2024/01/15 03:13:22;;;;;;;12.10;6.80;;;0.80;99.90;;;;;;4985270;28;20661;-85
2024/01/15 03:15:48;;;;;;;10.77;6.10;;;0.90;99.90;;;;;;4988432;28;20687;-86
2024/01/15 03:18:13;;;;;;;10.43;6.20;;;0.00;99.90;;;;;;4982025;28;20206;-85
2024/01/15 03:20:39;;;;;;;10.30;6.40;;;1.20;99.90;;;;;;4988872;28;20184;-87
2024/01/15 03:23:05;;;;;;;11.07;6.50;;;0.30;99.90;;;;;;4991189;28;20187;-87
2024/01/15 03:25:30;;;;;;;11.50;7.13;;;0.60;99.90;;;;;;4986711;28;20212;-85
2024/01/15 03:27:56;;;;;;;9.27;7.13;;;0.30;99.90;;;;;;4989419;28;20453;-86
2024/01/15 03:30:21;;;;;;;8.83;6.60;;;1.20;99.90;;;;;;4988567;28;20450;-86
2024/01/15 03:32:47;;;;;;;12.37;6.53;;;0.60;99.90;;;;;;4987858;28;20664;-85
2024/01/15 03:35:13;;;;;;;9.77;6.27;;;0.50;99.90;;;;;;4987180;28;20203;-86
2024/01/15 03:37:38;;;;;;;10.53;6.30;;;0.80;99.90;;;;;;4984492;28;20185;-86
2024/01/15 03:40:04;;;;;;;12.23;7.00;;;0.60;99.90;;;;;;4992953;28;20179;-88
2024/01/15 03:42:30;;;;;;;11.38;5.95;;;0.50;99.90;;;;;;4987748;28;20216;-85
2024/01/15 03:44:55;;;;;;;11.30;6.60;;;0.10;99.90;;;;;;4987371;28;20262;-85
2024/01/15 03:47:21;;;;;;;10.90;6.57;;;0.70;99.90;;;;;;4990828;28;20655;-85
2024/01/15 03:49:47;;;;;;;11.48;6.35;;;0.00;99.90;;;;;;4991118;28;20567;-88
2024/01/15 03:52:13;;;;;;;9.30;5.70;;;1.10;99.90;;;;;;4980901;28;20275;-87
2024/01/15 03:54:38;;;;;;;12.13;7.40;;;0.40;99.90;;;;;;4981493;28;20268;-87
2024/01/15 03:57:04;;;;;;;11.53;6.77;;;0.40;99.90;;;;;;4986308;28;20668;-87
2024/01/15 03:59:30;;;;;;;12.83;7.40;;;0.70;99.90;;;;;;4983859;28;20589;-87
2024/01/15 04:01:55;;;;;;;10.93;6.30;;;0.90;99.90;;;;;;4982896;28;20346;-86
2024/01/15 04:04:21;;;;;;;9.43;6.50;;;1.40;99.90;;;;;;4986970;28;20699;-87
2024/01/15 04:06:46;;;;;;;11.90;6.60;;;1.40;99.90;;;;;;4984637;28;20188;-87
2024/01/15 04:09:13;;;;;;;12.13;5.70;;;1.10;99.90;;;;;;4989080;28;20176;-87
2024/01/15 04:11:39;;;;;;;13.02;6.97;;;1.30;99.90;;;;;;4994664;28;20176;-86
2024/01/15 04:14:04;;;;;;;9.07;6.37;;;1.50;99.90;;;;;;4990935;28;20199;-87
2024/01/15 04:16:30;;;;;;;14.40;6.90;;;1.40;99.90;;;;;;4992453;28;20180;-86
2024/01/15 04:18:55;;;;;;;12.10;6.40;;;1.50;99.90;;;;;;4991076;28;20325;-86
2024/01/15 04:21:20;;;;;;;10.83;5.33;;;1.20;99.90;;;;;;4989092;28;20213;-86
2024/01/15 04:23:46;;;;;;;11.63;6.27;;;1.30;99.90;;;;;;4991276;28;20192;-88
2024/01/15 04:26:12;;;;;;;9.37;6.03;;;1.40;99.90;;;;;;4993087;28;20243;-88
2024/01/15 04:28:37;;;;;;;9.80;5.47;;;1.20;99.90;;;;;;4981936;28;20220;-87
2024/01/15 04:31:03;;;;;;;9.30;5.20;;;1.70;99.90;;;;;;4987664;28;20659;-87
2024/01/15 04:33:28;;;;;;;10.80;6.20;;;1.40;99.90;;;;;;4982638;28;20192;-87
2024/01/15 04:35:54;;;;;;;11.40;7.20;;;1.40;99.90;;;;;;4986812;28;20212;-87
2024/01/15 04:38:19;;;;;;;8.80;5.30;;;1.70;99.90;;;;;;4984674;28;20196;-87
2024/01/15 04:40:45;;;;;;;8.23;6.00;;;2.10;99.90;;;;;;4985898;28;20458;-87
2024/01/15 04:43:10;;;;;;;10.13;5.63;;;1.00;99.90;;;;;;4988412;28;20221;-86
2024/01/15 04:45:35;;;;;;;10.70;6.33;;;2.10;99.90;;;;;;4983711;28;20298;-86
2024/01/15 04:48:03;;;;;;;10.73;7.00;;;1.90;99.90;;;;;;4991153;28;20196;-87
2024/01/15 04:50:28;;;;;;;8.40;5.93;;;1.70;99.90;;;;;;4983970;28;20618;-87
2024/01/15 04:52:54;;;;;;;9.93;6.57;;;1.00;99.90;;;;;;4987612;28;20215;-88
2024/01/15 04:55:19;;;;;;;10.33;6.20;;;2.30;99.90;;;;;;4985897;28;20208;-88
2024/01/15 04:57:45;;;;;;;9.37;6.80;;;1.90;99.90;;;;;;4985885;28;20187;-88
2024/01/15 05:00:12;;;;;;;9.50;5.83;;;1.70;99.90;;;;;;4986801;28;20260;-86
2024/01/15 05:02:37;;;;;;;11.05;7.90;;;1.80;99.90;;;;;;4981858;28;20240;-87
2024/01/15 05:05:03;;;;;;;9.30;5.90;;;2.20;99.90;;;;;;4987122;28;20337;-87
2024/01/15 05:07:28;;;;;;;11.17;6.50;;;2.00;99.90;;;;;;4978413;28;20179;-87
2024/01/15 05:09:54;;;;;;;9.10;6.47;;;1.90;99.90;;;;;;4982218;28;20188;-88
2024/01/15 05:12:19;;;;;;;9.90;6.07;;;1.80;99.90;;;;;;4985385;28;20308;-87
2024/01/15 05:14:45;;;;;;;8.67;6.60;;;2.00;99.90;;;;;;4984906;28;20303;-87
2024/01/15 05:17:10;;;;;;;10.63;6.73;;;2.00;99.90;;;;;;4985032;28;20188;-87
2024/01/15 05:19:36;;;;;;;8.90;7.03;;;1.50;99.90;;;;;;4982851;28;20631;-87
2024/01/15 05:22:01;;;;;;;11.23;7.13;;;1.60;99.90;;;;;;4985169;28;20744;-87
2024/01/15 05:24:27;;;;;;;9.47;6.10;;;2.10;99.90;;;;;;4984280;28;20207;-87
2024/01/15 05:26:52;;;;;;;11.00;7.27;;;2.00;99.90;;;;;;4982845;28;20185;-88
2024/01/15 05:29:18;;;;;;;11.00;7.47;;;1.90;99.90;;;;;;4985510;28;20187;-87
2024/01/15 05:31:44;;;;;;;13.70;8.13;;;1.70;99.90;;;;;;4984313;28;20252;-87
2024/01/15 05:34:09;;;;;;;11.00;6.87;;;1.80;99.90;;;;;;4989882;28;20274;-87
2024/01/15 05:36:35;;;;;;;12.37;7.43;;;1.80;99.90;;;;;;4992375;28;20188;-86
2024/01/15 05:39:00;;;;;;;9.27;6.00;;;2.00;99.90;;;;;;4990981;28;20188;-85
2024/01/15 05:41:26;;;;;;;9.43;6.20;;;1.90;99.90;;;;;;4991837;28;20238;-86
2024/01/15 05:43:52;;;;;;;11.73;6.53;;;2.00;99.90;;;;;;4987223;28;20200;-86
2024/01/15 05:46:17;;;;;;;11.07;6.10;;;2.00;99.90;;;;;;4989555;28;20203;-86
2024/01/15 05:48:43;;;;;;;10.10;6.20;;;1.70;99.90;;;;;;4993046;28;20298;-86
2024/01/15 05:51:08;;;;;;;8.63;6.20;;;1.90;99.90;;;;;;4991067;28;20199;-86
2024/01/15 05:53:33;;;;;;;9.30;6.43;;;1.90;99.90;;;;;;4986247;28;20191;-86
2024/01/15 05:56:01;;;;;;;9.60;5.90;;;1.80;99.90;;;;;;4984409;28;20224;-86
2024/01/15 05:58:26;;;;;;;10.38;6.05;;;1.40;99.90;;;;;;4989254;28;20217;-86
2024/01/15 06:00:52;;;;;;;9.80;7.13;;;1.90;99.90;;;;;;4988972;28;20541;-85
2024/01/15 06:03:17;;;;;;;8.87;6.10;;;2.00;99.90;;;;;;4987909;28;20190;-87
2024/01/15 06:05:43;;;;;;;10.37;5.60;;;1.90;99.90;;;;;;4989690;28;20208;-85
2024/01/15 06:08:09;;;;;;;8.82;6.15;;;1.90;99.90;;;;;;4991520;28;20181;-85
2024/01/15 06:10:34;;;;;;;11.50;6.80;;;2.20;99.90;;;;;;4990087;28;20185;-86
2024/01/15 06:13:00;;;;;;;9.27;5.80;;;2.00;99.90;;;;;;4989514;28;20196;-87
2024/01/15 06:15:25;;;;;;;8.93;6.50;;;1.90;99.90;;;;;;4992229;28;20217;-86
2024/01/15 06:17:51;;;;;;;9.83;6.60;;;2.00;99.90;;;;;;4988368;28;20535;-85
2024/01/15 06:20:16;;;;;;;9.20;6.43;;;2.00;99.90;;;;;;4993285;28;20188;-86
2024/01/15 06:22:42;;;;;;;8.43;5.57;;;2.30;99.90;;;;;;4993069;28;20223;-85
2024/01/15 06:25:08;;;;;;;8.23;5.97;;;2.40;99.90;;;;;;4992701;28;20588;-86
2024/01/15 06:27:34;;;;;;;11.82;6.22;;;2.00;99.90;;;;;;4992889;28;20238;-87
2024/01/15 06:29:59;;;;;;;8.53;6.03;;;1.80;99.90;;;;;;4990521;28;20179;-86
2024/01/15 06:32:25;;;;;;;9.77;5.83;;;2.10;99.90;;;;;;4985631;28;20192;-86
2024/01/15 06:34:50;;;;;;;9.20;6.00;;;1.80;99.90;;;;;;4996513;28;20212;-85
2024/01/15 06:37:16;;;;;;;9.53;6.10;;;2.40;99.90;;;;;;4988404;28;20188;-87
2024/01/15 06:39:41;;;;;;;8.93;6.03;;;2.00;99.90;;;;;;4994176;28;20192;-89
2024/01/15 06:42:07;;;;;;;9.00;6.00;;;2.00;99.90;;;;;;4986892;28;20208;-88
2024/01/15 06:44:32;;;;;;;8.40;5.53;;;2.00;99.90;;;;;;4990306;28;20294;-88
2024/01/15 06:47:02;;;;;;;11.53;6.53;;;2.00;99.90;;;;;;4997254;28;20180;-88
2024/01/15 06:49:28;;;;;;;11.15;6.88;;;2.50;99.90;;;;;;4995404;28;20184;-87
2024/01/15 06:51:54;;;;;;;8.77;5.60;;;1.60;99.90;;;;;;4992957;28;20547;-87
2024/01/15 06:54:20;;;;;;;11.00;6.10;;;2.50;99.90;;;;;;4988103;28;20207;-87
2024/01/15 06:56:45;;;;;;;8.13;5.77;;;2.20;99.90;;;;;;4991917;28;20184;-86
2024/01/15 06:59:11;;;;;;;10.33;6.10;;;2.10;99.90;;;;;;4991940;28;20451;-87
2024/01/15 07:01:36;;;;;;;12.63;6.77;;;2.50;99.90;;;;;;4997919;28;20406;-86
2024/01/15 07:04:03;;;;;;;9.90;6.03;;;2.10;99.90;;;;;;4993837;28;20184;-88
2024/01/15 07:06:29;;;;;;;9.30;6.40;;;2.20;99.90;;;;;;4990986;28;20188;-87
2024/01/15 07:08:55;;;;;;;7.18;5.47;;;2.20;99.90;;;;;;4989580;28;20180;-87
2024/01/15 07:11:21;;;;;;;9.23;6.50;;;;;;;;;;4991342;28;20763;-86
2024/01/15 07:13:46;;;;;;;7.30;5.43;;;2.10;99.90;;;;;;4984227;28;20413;-87
2024/01/15 07:16:12;;;;;;;8.53;6.00;;;2.20;99.90;;;;;;4986246;28;20468;-87
2024/01/15 07:18:37;;;;;;;8.50;5.13;;;2.00;99.90;;;;;;4992332;28;20195;-87
2024/01/15 07:21:04;;;;;;;10.60;6.73;;;2.10;99.90;;;;;;4993642;28;20204;-87
2024/01/15 07:23:31;;;;;;;7.43;5.45;;;2.30;99.90;;;;;;4985207;28;20183;-88
2024/01/15 07:25:58;;;;;;;9.35;6.53;;;2.20;99.90;;;;;;4985373;28;20210;-87
2024/01/15 07:28:24;;;;;;;7.57;5.50;;;2.70;99.90;;;;;;4986412;28;20188;-87
2024/01/15 07:30:49;;;;;;;9.00;6.57;;;2.70;99.90;;;;;;4991818;28;20180;-87
2024/01/15 07:33:15;;;;;;;9.73;6.10;;;2.00;99.90;;;;;;4988367;28;20239;-88
2024/01/15 07:35:40;;;;;;;8.83;6.97;;;2.00;99.90;;;;;;4984704;28;20211;-87
2024/01/15 07:38:06;;;;;;;9.50;5.60;;;1.50;99.90;;;;;;4986668;28;20558;-86
2024/01/15 07:40:32;;;;;;;10.30;6.20;;;1.50;99.90;;;;;;4992419;28;20439;-88
2024/01/15 07:42:57;;;;;;;9.53;5.90;;;2.40;99.90;;;;;;4999499;28;20627;-86
2024/01/15 07:45:23;;;;;;;7.40;5.60;;;2.20;99.90;;;;;;4997298;28;20216;-87
2024/01/15 07:47:49;;;;;;;12.03;7.10;;;2.30;99.90;;;;;;4993363;28;20330;-88
2024/01/15 07:50:14;;;;;;;14.30;7.20;;;2.40;99.90;;;;;;4993160;28;20201;-87
2024/01/15 07:52:43;;;;;;;10.57;6.20;;;2.30;99.90;;;;;;4993974;28;20445;-86
2024/01/15 07:55:08;;;;;;;8.73;6.53;;;2.30;99.90;;;;;;4989339;28;20211;-86
2024/01/15 07:57:35;;;;;;;10.40;5.40;;;2.50;99.90;;;;;;4987744;28;20181;-88
2024/01/15 08:00:01;;;;;;;9.82;5.63;;;2.40;99.90;;;;;;4993230;28;20180;-88
2024/01/15 08:02:27;;;;;;;6.93;5.72;;;2.40;99.90;;;;;;4999501;28;20219;-87
2024/01/15 08:04:52;;;;;;;10.17;5.77;;;2.80;99.90;;;;;;5005398;28;20208;-87
2024/01/15 08:07:18;;;;;;;8.87;5.67;;;2.40;99.90;;;;;;4986505;28;20217;-87
2024/01/15 08:09:44;;;;;;;8.73;5.97;;;2.90;99.90;;;;;;4997783;28;20231;-88
2024/01/15 08:12:09;;;;;;;10.53;6.53;;;2.40;99.80;;;;;;5003827;28;20260;-87
2024/01/15 08:14:35;;;;;;;7.93;5.60;;;2.40;99.20;;;;;;4993269;28;20199;-88
2024/01/15 08:17:01;;;;;;;8.53;5.30;;;2.40;99.20;;;;;;4999555;28;20618;-87
2024/01/15 08:19:27;;;;;;;7.78;5.38;;;2.70;99.20;;;;;;5001629;28;20195;-89
2024/01/15 08:21:53;;;;;;;9.90;5.20;;;2.60;99.40;;;;;;5002319;28;20228;-88
2024/01/15 08:24:18;;;;;;;9.30;5.93;;;2.20;99.10;;;;;;5007325;28;20243;-88
2024/01/15 08:26:44;;;;;;;12.83;5.30;;;2.60;99.40;;;;;;5010903;28;20216;-88
2024/01/15 08:29:09;;;;;;;7.07;5.30;;;2.60;99.20;;;;;;5007169;28;20200;-88
2024/01/15 08:31:35;;;;;;;9.90;5.13;;;2.40;99.10;;;;;;5002091;28;20272;-87
2024/01/15 08:34:01;;;;;;;8.87;5.33;;;2.50;98.70;;;;;;5003223;28;20180;-88
2024/01/15 08:36:30;;;;;;;8.48;5.57;;;2.60;99.20;;;;;;5006234;28;20195;-87
2024/01/15 08:38:56;;;;;;;9.10;5.53;;;2.80;99.00;;;;;;5002630;28;20197;-87
2024/01/15 08:41:21;;;;;;;11.53;6.70;;;2.30;98.80;;;;;;4995499;28;20214;-86
2024/01/15 08:43:47;;;;;;;8.53;5.83;;;3.20;99.00;;;;;;4999026;28;20192;-86
2024/01/15 08:46:12;;;;;;;10.87;7.57;;;2.90;98.60;;;;;;5000526;28;20208;-87
2024/01/15 08:48:38;;;;;;;9.27;6.43;;;2.90;98.40;;;;;;4993986;28;20186;-86
2024/01/15 08:51:03;;;;;;;8.20;5.50;;;3.10;98.10;;;;;;4995696;28;20185;-86
2024/01/15 08:53:29;;;;;;;8.50;5.53;;;3.40;98.20;;;;;;4996410;28;20185;-86
2024/01/15 08:55:55;;;;;;;7.53;4.73;;;3.60;97.60;;;;;;4993106;28;20209;-86
2024/01/15 08:58:20;;;;;;;7.73;5.40;;;3.30;97.40;;;;;;4993927;28;20192;-87
2024/01/15 09:00:46;;;;;;;7.97;5.40;;;3.90;97.50;;;;;;4994933;28;20258;-87
2024/01/15 09:03:11;;;;;;;10.53;5.90;;;3.90;96.90;;;;;;4999495;28;20207;-87
2024/01/15 09:05:37;;;;;;;7.83;4.47;;;3.40;96.70;;;;;;4999401;28;20731;-87
2024/01/15 09:08:03;;;;;;;6.57;4.27;;;3.60;97.00;;;;;;4991808;28;20195;-87
2024/01/15 09:10:29;;;;;;;7.40;4.85;;;3.60;96.30;;;;;;4994349;28;20180;-87
2024/01/15 09:12:54;;;;;;;7.50;4.97;;;3.50;96.00;;;;;;4999795;28;20579;-87
2024/01/15 09:15:20;;;;;;;7.00;4.70;;;3.90;95.80;;;;;;4997352;28;20275;-87
2024/01/15 09:17:46;;;;;;;5.90;3.83;;;3.60;95.00;;;;;;4995235;28;20196;-87
2024/01/15 09:20:11;;;;;;;5.77;4.10;;;3.30;95.60;;;;;;4990860;28;20212;-88
2024/01/15 09:22:43;;;;;;;6.93;3.97;;;3.20;95.30;;;;;;4986144;28;20210;-86
2024/01/15 09:25:12;;;;;;;9.40;4.38;;;3.80;95.90;;;;;;4991250;28;20528;-86
2024/01/15 09:27:37;;;;;;;10.35;4.38;;;3.30;95.50;;;;;;4999606;28;20218;-87
2024/01/15 09:30:04;;;;;;;10.70;4.20;;;3.90;95.50;;;;;;4995163;28;20573;-86
2024/01/15 09:32:30;;;;;;;5.53;4.07;;;3.40;95.30;;;;;;4994856;28;20592;-86
2024/01/15 09:34:55;;;;;;;4.27;3.53;;;3.80;95.20;;;;;;4989500;28;20281;-86
2024/01/15 09:37:21;;;;;;;10.20;4.20;;;3.60;95.20;;;;;;4997211;28;20193;-86
2024/01/15 09:39:48;;;;;;;9.97;4.30;;;3.70;95.10;;;;;;4996885;28;20200;-86
2024/01/15 09:42:14;;;;;;;4.95;4.22;;;3.80;95.20;;;;;;4994694;28;20216;-86
2024/01/15 09:44:39;;;;;;;5.70;4.07;;;3.80;94.90;;;;;;4992354;28;20217;-87
2024/01/15 09:47:06;;;;;;;7.50;4.50;;;3.90;94.80;;;;;;4996486;28;20445;-86
2024/01/15 09:49:31;;;;;;;5.22;3.88;;;3.60;94.60;;;;;;4999778;28;20238;-84
2024/01/15 09:51:58;;;;;;;5.60;3.77;;;3.60;95.00;;;;;;4989410;28;20185;-85
2024/01/15 09:54:24;;;;;;;10.98;4.25;;;4.10;95.20;;;;;;4984638;28;20219;-86
2024/01/15 09:56:50;;;;;;;5.23;3.97;;;3.60;94.80;;;;;;4991035;28;20185;-84
2024/01/15 09:59:17;;;;;;;8.73;5.45;;;4.00;95.40;;;;;;4978212;28;20202;-86
2024/01/15 10:01:44;;;;;;;7.80;4.40;;;3.70;95.30;;;;;;4989976;28;20208;-86
2024/01/15 10:04:13;;;;;;;5.15;3.85;;;3.50;94.50;;;;;;4982380;28;20882;-84
2024/01/15 10:06:42;;;;;;;6.65;4.65;;;3.70;95.20;;;;;;4984628;28;20181;-85
2024/01/15 10:09:08;;;;;;;9.82;5.18;;;3.70;95.30;;;;;;4986771;28;20192;-85
2024/01/15 10:11:34;;;;;;;5.00;3.97;;;3.80;95.00;;;;;;4987891;28;20189;-85
2024/01/15 10:13:59;;;;;;;8.67;4.27;;;3.90;94.90;;;;;;4984055;28;20188;-87
2024/01/15 10:16:25;;;;;;;6.77;4.40;;;3.70;95.10;;;;;;4986415;28;20191;-84
2024/01/15 10:18:51;;;;;;;6.75;4.50;;;3.80;95.30;;;;;;4983889;28;20280;-86
2024/01/15 10:21:17;;;;;;;7.87;4.43;;;3.60;94.90;;;;;;4984286;28;20209;-87
2024/01/15 10:23:42;;;;;;;8.77;5.03;;;3.70;95.20;;;;;;4986147;28;20260;-84
2024/01/15 10:26:08;;;;;;;8.23;4.00;;;3.90;95.60;;;;;;4987300;28;20201;-85
2024/01/15 10:28:33;;;;;;;4.53;3.63;;;3.70;95.10;;;;;;4989285;28;20196;-86
2024/01/15 10:31:00;;;;;;;4.87;4.33;;;3.90;94.60;;;;;;4982271;28;20452;-85
2024/01/15 10:33:26;;;;;;;6.40;4.40;;;4.30;95.30;;;;;;4987283;28;20196;-86
2024/01/15 10:35:56;;;;;;;4.32;3.50;;;4.30;95.20;;;;;;4979800;28;20217;-86
2024/01/15 10:38:23;;;;;;;6.15;4.25;;;3.80;94.80;;;;;;4982031;28;20178;-86
2024/01/15 10:40:56;;;;;;;5.47;3.70;;;4.10;95.00;;;;;;4987296;28;20567;-85
2024/01/15 10:43:22;;;;;;;6.72;3.90;;;3.80;94.80;;;;;;4980378;28;20186;-86
2024/01/15 10:45:49;;;;;;;7.20;3.75;;;4.10;95.10;;;;;;4979185;28;20557;-85
2024/01/15 10:48:17;;;;;;;5.28;3.70;;;4.40;95.20;;;;;;4982175;28;20357;-85
2024/01/15 10:50:45;;;;;;;5.22;3.60;;;4.40;95.20;;;;;;4988695;28;20197;-85
2024/01/15 10:53:11;;;;;;;5.65;3.92;;;4.10;94.90;;;;;;4984693;28;20189;-86
2024/01/15 10:55:38;;;;;;;8.00;4.32;;;4.20;94.90;;;;;;4989689;28;20237;-85
2024/01/15 10:58:03;;;;;;;4.97;3.72;;;3.50;94.90;;;;;;4984092;28;20242;-85
2024/01/15 11:00:30;;;;;;;5.57;3.90;;;4.10;95.20;;;;;;4983393;28;20202;-84
2024/01/15 11:02:56;;;;;;;5.13;3.65;;;3.90;95.40;;;;;;4986891;28;20471;-85
2024/01/15 11:05:22;;;;;;;6.20;3.95;;;3.40;94.70;;;;;;4989495;28;20204;-85
2024/01/15 11:07:49;;;;;;;6.63;4.20;;;4.10;95.10;;;;;;4984614;28;20186;-86
2024/01/15 11:10:39;;;;;;;4.85;4.03;;;4.30;95.10;;;;;;4987325;28;20197;-85
2024/01/15 11:13:08;;;;;;;5.60;4.22;;;4.60;95.20;;;;;;4991098;28;20284;-84
2024/01/15 11:15:54;;;;;;;9.25;5.80;;;4.40;95.00;;;;;;4994613;28;20214;-85
2024/01/15 11:18:22;;;;;;;6.97;5.53;;;4.10;95.00;;;;;;4988254;28;20216;-86
2024/01/15 11:21:12;;;;;;;6.20;5.60;;;4.60;95.60;;;;;;4986254;28;20196;-86
2024/01/15 11:23:56;;;;;;;4.97;4.20;;;4.10;96.10;;;;;;4989396;28;20659;-86
2024/01/15 11:26:44;;;;;;;5.63;4.00;;;4.30;96.80;;;;;;4989194;28;20225;-86
2024/01/15 11:29:26;;;;;;;6.30;4.25;;;3.70;97.10;;;;;;4982793;28;20211;-86
2024/01/15 11:31:54;;;;;;;5.55;4.35;;;4.20;97.40;;;;;;5000176;28;20297;-84
2024/01/15 11:34:21;;;;;;;7.40;4.20;;;4.70;97.80;;;;;;4996412;28;20252;-84
2024/01/15 11:36:52;;;;;;;5.75;4.32;;;4.20;97.50;;;;;;4994515;28;20201;-85
2024/01/15 11:39:27;;;;;;;6.03;5.20;;;4.10;97.40;;;;;;4992667;28;20186;-84
2024/01/15 11:42:01;;;;;;;7.35;4.97;;;4.70;98.00;;;;;;4992834;28;20233;-85
2024/01/15 11:44:27;;;;;;;5.40;4.38;;;3.50;97.60;;;;;;4989813;28;20210;-86
2024/01/15 11:47:00;;;;;;;5.55;4.65;;;4.20;98.00;;;;;;4993312;28;20205;-86
2024/01/15 11:50:08;;;;;;;8.15;4.57;;;3.40;98.60;;;;;;4992485;28;20190;-85
2024/01/15 11:52:38;;;;;;;7.00;4.63;;;3.90;99.50;;;;;;4980555;28;20199;-86
2024/01/15 11:55:26;;;;;;;6.70;5.30;;;3.70;99.90;;;;;;4993667;28;20225;-86
2024/01/15 11:57:56;;;;;;;6.85;4.22;;;3.80;99.90;;;;;;4993641;28;20189;-85
2024/01/15 12:00:23;;;;;;;7.28;4.75;;;3.60;99.90;;;;;;4979757;28;20317;-86
2024/01/15 12:02:50;;;;;;;5.85;4.88;;;3.80;99.90;;;;;;4986611;28;20205;-85
2024/01/15 12:05:17;;;;;;;6.05;4.57;;;4.00;99.90;;;;;;5006089;28;20224;-86
2024/01/15 12:07:43;;;;;;;9.60;4.43;;;3.80;99.90;;;;;;4986673;28;20182;-85
2024/01/15 12:10:13;;;;;;;9.15;4.85;;;3.70;99.90;;;;;;4991219;28;20363;-85
2024/01/15 12:13:09;;;;;;;5.80;4.95;;;3.80;99.90;;;;;;4993301;28;20185;-86
2024/01/15 12:15:35;;;;;;;5.72;4.32;;;5.10;99.90;;;;;;4980019;28;20223;-85
2024/01/15 12:18:02;;;;;;;7.40;4.30;;;3.80;99.90;;;;;;4996680;28;20197;-84
2024/01/15 12:20:29;;;;;;;6.30;4.55;;;3.20;99.90;;;;;;4992671;28;20448;-85
2024/01/15 12:22:56;;;;;;;7.32;4.40;;;3.10;99.90;;;;;;4992979;28;20230;-85
2024/01/15 12:25:27;;;;;;;6.88;4.40;;;3.50;99.90;;;;;;4993036;28;20202;-85
2024/01/15 12:27:53;;;;;;;8.25;4.85;;;3.10;99.90;;;;;;4991487;28;20195;-87
2024/01/15 12:30:18;;;;;;;10.25;5.13;;;2.80;99.90;;;;;;4984881;28;20184;-85
2024/01/15 12:32:44;;;;;;;8.13;4.93;;;3.10;99.90;;;;;;4993075;28;20744;-87
2024/01/15 12:35:11;;;;;;;9.90;5.17;;;2.60;99.90;;;;;;4994010;28;20964;-85
2024/01/15 12:37:37;;;;;;;9.30;6.05;;;2.90;99.90;;;;;;4988867;28;20797;-87
2024/01/15 12:40:12;;;;;;;7.85;5.82;;;2.30;99.90;;;;;;4992839;28;20254;-85
2024/01/15 12:42:39;;;;;;;8.63;5.88;;;3.10;99.90;;;;;;4991288;28;20212;-86
2024/01/15 12:45:06;;;;;;;7.82;6.43;;;2.80;99.90;;;;;;4992754;28;20672;-87
2024/01/15 12:47:31;;;;;;;9.50;6.25;;;2.60;99.90;;;;;;4993856;28;20276;-86
2024/01/15 12:49:59;;;;;;;10.33;6.67;;;2.60;99.90;;;;;;4996638;28;20662;-87